sensor_id;sensor_type;location;lat;lon;timestamp;pressure;altitude;pressure_sealevel;temperature;humidity
41218;BME280;26950;50.960;7.138;2023-07-20T00:01:12;100379.09;;;24.40;48.50
41218;BME280;26950;50.960;7.138;2023-07-20T00:03:38;100377.09;;;24.45;48.85
41218;BME280;26950;50.960;7.138;2023-07-20T00:06:05;100374.38;;;24.18;48.25
41218;BME280;26950;50.960;7.138;2023-07-20T00:08:31;100381.09;;;24.60;47.51
41218;BME280;26950;50.960;7.138;2023-07-20T00:10:58;100383.00;;;24.56;47.69
41218;BME280;26950;50.960;7.138;2023-07-20T00:13:26;100373.81;;;24.63;47.80
41218;BME280;26950;50.960;7.138;2023-07-20T00:15:52;100386.16;;;24.14;48.49
41218;BME280;26950;50.960;7.138;2023-07-20T00:18:19;100389.25;;;24.29;49.20
41218;BME280;26950;50.960;7.138;2023-07-20T00:20:46;100385.38;;;24.39;48.72
41218;BME280;26950;50.960;7.138;2023-07-20T00:23:13;100382.97;;;24.30;48.95
41218;BME280;26950;50.960;7.138;2023-07-20T00:25:39;100381.47;;;24.49;48.20
41218;BME280;26950;50.960;7.138;2023-07-20T00:28:06;100390.84;;;24.36;47.77
41218;BME280;26950;50.960;7.138;2023-07-20T00:30:33;100377.63;;;24.56;47.43
41218;BME280;26950;50.960;7.138;2023-07-20T00:33:00;100378.81;;;24.19;48.08
41218;BME280;26950;50.960;7.138;2023-07-20T00:35:26;100378.56;;;24.55;47.25
41218;BME280;26950;50.960;7.138;2023-07-20T00:37:53;100377.81;;;24.52;47.39
41218;BME280;26950;50.960;7.138;2023-07-20T00:40:19;100378.03;;;24.44;47.18
41218;BME280;26950;50.960;7.138;2023-07-20T00:42:46;100378.50;;;24.57;47.31
41218;BME280;26950;50.960;7.138;2023-07-20T00:45:12;100381.25;;;24.55;48.16
41218;BME280;26950;50.960;7.138;2023-07-20T00:47:40;100375.34;;;24.45;48.40
41218;BME280;26950;50.960;7.138;2023-07-20T00:50:07;100384.22;;;24.18;49.04
41218;BME280;26950;50.960;7.138;2023-07-20T00:52:37;100387.13;;;24.40;47.78
41218;BME280;26950;50.960;7.138;2023-07-20T00:55:06;100391.06;;;24.56;47.00
41218;BME280;26950;50.960;7.138;2023-07-20T00:57:33;100389.81;;;24.66;46.88
41218;BME280;26950;50.960;7.138;2023-07-20T01:00:00;100390.69;;;23.21;49.71
41218;BME280;26950;50.960;7.138;2023-07-20T01:02:26;100385.38;;;24.39;47.85
41218;BME280;26950;50.960;7.138;2023-07-20T01:04:54;100378.53;;;24.29;48.80
41218;BME280;26950;50.960;7.138;2023-07-20T01:07:25;100398.06;;;24.34;48.54
41218;BME280;26950;50.960;7.138;2023-07-20T01:10:00;100393.81;;;23.97;49.24
41218;BME280;26950;50.960;7.138;2023-07-20T01:12:32;100381.50;;;24.47;47.90
41218;BME280;26950;50.960;7.138;2023-07-20T01:15:02;100384.03;;;23.66;50.30
41218;BME280;26950;50.960;7.138;2023-07-20T01:17:28;100386.75;;;23.94;49.90
41218;BME280;26950;50.960;7.138;2023-07-20T01:19:56;100381.53;;;24.18;49.31
41218;BME280;26950;50.960;7.138;2023-07-20T01:25:34;100389.03;;;23.79;50.87
41218;BME280;26950;50.960;7.138;2023-07-20T01:28:27;100383.22;;;24.22;49.00
41218;BME280;26950;50.960;7.138;2023-07-20T01:31:13;100378.03;;;24.16;49.67
41218;BME280;26950;50.960;7.138;2023-07-20T01:33:40;100376.69;;;22.75;53.19
41218;BME280;26950;50.960;7.138;2023-07-20T01:36:08;100373.13;;;24.02;49.77
41218;BME280;26950;50.960;7.138;2023-07-20T01:38:36;100374.56;;;24.12;49.70
41218;BME280;26950;50.960;7.138;2023-07-20T01:41:03;100377.00;;;23.62;51.19
41218;BME280;26950;50.960;7.138;2023-07-20T01:43:30;100382.47;;;23.58;51.48
41218;BME280;26950;50.960;7.138;2023-07-20T01:45:56;100369.88;;;24.20;49.00
41218;BME280;26950;50.960;7.138;2023-07-20T01:48:24;100376.28;;;23.56;50.21
41218;BME280;26950;50.960;7.138;2023-07-20T01:50:51;100379.47;;;23.70;49.94
41218;BME280;26950;50.960;7.138;2023-07-20T01:53:17;100376.44;;;23.50;50.35
41218;BME280;26950;50.960;7.138;2023-07-20T01:55:44;100373.81;;;23.48;51.60
41218;BME280;26950;50.960;7.138;2023-07-20T01:58:10;100370.69;;;22.30;53.37
41218;BME280;26950;50.960;7.138;2023-07-20T02:00:37;100366.22;;;22.32;53.44
41218;BME280;26950;50.960;7.138;2023-07-20T02:03:04;100362.34;;;23.13;52.02
41218;BME280;26950;50.960;7.138;2023-07-20T02:05:32;100368.03;;;23.00;52.27
41218;BME280;26950;50.960;7.138;2023-07-20T02:07:58;100370.63;;;23.66;51.43
41218;BME280;26950;50.960;7.138;2023-07-20T02:10:25;100369.66;;;23.99;50.44
41218;BME280;26950;50.960;7.138;2023-07-20T02:12:51;100370.63;;;24.24;49.72
41218;BME280;26950;50.960;7.138;2023-07-20T02:15:18;100371.44;;;23.06;51.70
41218;BME280;26950;50.960;7.138;2023-07-20T02:17:44;100374.78;;;22.46;54.31
41218;BME280;26950;50.960;7.138;2023-07-20T02:20:11;100363.75;;;23.27;52.33
41218;BME280;26950;50.960;7.138;2023-07-20T02:22:39;100370.09;;;22.90;53.18
41218;BME280;26950;50.960;7.138;2023-07-20T02:25:07;100371.66;;;23.30;51.83
41218;BME280;26950;50.960;7.138;2023-07-20T02:27:34;100374.69;;;23.80;50.39
41218;BME280;26950;50.960;7.138;2023-07-20T02:30:01;100369.06;;;24.17;49.69
41218;BME280;26950;50.960;7.138;2023-07-20T02:32:28;100371.59;;;23.93;50.60
41218;BME280;26950;50.960;7.138;2023-07-20T02:34:55;100375.19;;;23.92;50.15
41218;BME280;26950;50.960;7.138;2023-07-20T02:37:21;100367.25;;;23.29;51.86
41218;BME280;26950;50.960;7.138;2023-07-20T02:39:49;100368.41;;;23.81;50.38
41218;BME280;26950;50.960;7.138;2023-07-20T02:42:16;100358.44;;;23.86;51.05
41218;BME280;26950;50.960;7.138;2023-07-20T02:44:42;100362.53;;;24.26;49.75
41218;BME280;26950;50.960;7.138;2023-07-20T02:47:09;100356.41;;;24.22;49.53
41218;BME280;26950;50.960;7.138;2023-07-20T02:49:35;100363.41;;;24.26;49.23
41218;BME280;26950;50.960;7.138;2023-07-20T02:52:02;100366.44;;;24.15;49.65
41218;BME280;26950;50.960;7.138;2023-07-20T02:54:29;100367.31;;;24.44;48.57
41218;BME280;26950;50.960;7.138;2023-07-20T02:56:57;100373.63;;;24.13;49.55
41218;BME280;26950;50.960;7.138;2023-07-20T02:59:23;100378.53;;;24.29;49.61
41218;BME280;26950;50.960;7.138;2023-07-20T03:01:50;100383.75;;;23.76;51.23
41218;BME280;26950;50.960;7.138;2023-07-20T03:04:16;100388.47;;;22.68;53.12
41218;BME280;26950;50.960;7.138;2023-07-20T03:06:43;100375.16;;;23.33;52.51
41218;BME280;26950;50.960;7.138;2023-07-20T03:09:09;100387.03;;;21.77;56.41
41218;BME280;26950;50.960;7.138;2023-07-20T03:11:36;100395.44;;;22.40;55.23
41218;BME280;26950;50.960;7.138;2023-07-20T03:14:04;100381.88;;;22.81;53.75
41218;BME280;26950;50.960;7.138;2023-07-20T03:16:30;100376.69;;;23.73;51.75
41218;BME280;26950;50.960;7.138;2023-07-20T03:18:58;100380.25;;;23.74;51.14
41218;BME280;26950;50.960;7.138;2023-07-20T03:21:24;100381.63;;;23.87;51.21
41218;BME280;26950;50.960;7.138;2023-07-20T03:23:51;100382.09;;;24.01;50.90
41218;BME280;26950;50.960;7.138;2023-07-20T03:26:18;100381.44;;;23.32;52.39
41218;BME280;26950;50.960;7.138;2023-07-20T03:28:44;100377.31;;;23.83;51.76
41218;BME280;26950;50.960;7.138;2023-07-20T03:31:12;100382.06;;;23.09;52.63
41218;BME280;26950;50.960;7.138;2023-07-20T03:33:40;100382.44;;;23.28;53.18
41218;BME280;26950;50.960;7.138;2023-07-20T03:36:07;100380.13;;;23.78;51.45
41218;BME280;26950;50.960;7.138;2023-07-20T03:38:35;100388.50;;;23.66;51.75
41218;BME280;26950;50.960;7.138;2023-07-20T03:41:01;100391.78;;;23.76;51.24
41218;BME280;26950;50.960;7.138;2023-07-20T03:43:28;100383.66;;;23.48;51.56
41218;BME280;26950;50.960;7.138;2023-07-20T03:45:55;100396.75;;;22.93;53.48
41218;BME280;26950;50.960;7.138;2023-07-20T03:48:24;100393.47;;;23.16;52.40
41218;BME280;26950;50.960;7.138;2023-07-20T03:50:52;100385.94;;;22.98;52.92
41218;BME280;26950;50.960;7.138;2023-07-20T03:53:19;100395.69;;;23.65;51.51
41218;BME280;26950;50.960;7.138;2023-07-20T03:55:47;100389.81;;;23.51;51.48
41218;BME280;26950;50.960;7.138;2023-07-20T03:58:14;100389.25;;;23.40;51.81
41218;BME280;26950;50.960;7.138;2023-07-20T04:00:43;100397.88;;;23.81;50.74
41218;BME280;26950;50.960;7.138;2023-07-20T04:03:10;100398.75;;;23.50;51.34
41218;BME280;26950;50.960;7.138;2023-07-20T04:05:38;100402.63;;;23.40;51.38
41218;BME280;26950;50.960;7.138;2023-07-20T04:08:04;100401.50;;;23.80;50.68
41218;BME280;26950;50.960;7.138;2023-07-20T04:10:31;100405.28;;;23.73;51.07
41218;BME280;26950;50.960;7.138;2023-07-20T04:12:57;100412.72;;;23.92;50.92
41218;BME280;26950;50.960;7.138;2023-07-20T04:15:24;100399.44;;;23.88;50.79
41218;BME280;26950;50.960;7.138;2023-07-20T04:17:51;100405.09;;;23.79;51.08
41218;BME280;26950;50.960;7.138;2023-07-20T04:20:17;100404.66;;;23.63;51.11
41218;BME280;26950;50.960;7.138;2023-07-20T04:22:45;100407.84;;;23.76;50.66
41218;BME280;26950;50.960;7.138;2023-07-20T04:25:11;100404.81;;;23.57;50.76
41218;BME280;26950;50.960;7.138;2023-07-20T04:27:38;100412.38;;;23.42;51.46
41218;BME280;26950;50.960;7.138;2023-07-20T04:30:07;100417.09;;;23.00;52.92
41218;BME280;26950;50.960;7.138;2023-07-20T04:32:33;100416.75;;;22.02;55.77
41218;BME280;26950;50.960;7.138;2023-07-20T04:35:00;100412.66;;;23.01;53.21
41218;BME280;26950;50.960;7.138;2023-07-20T04:37:26;100416.03;;;23.40;52.02
41218;BME280;26950;50.960;7.138;2023-07-20T04:39:54;100417.38;;;23.86;50.76
41218;BME280;26950;50.960;7.138;2023-07-20T04:42:21;100418.19;;;23.58;51.28
41218;BME280;26950;50.960;7.138;2023-07-20T04:44:47;100418.22;;;23.24;52.15
41218;BME280;26950;50.960;7.138;2023-07-20T04:47:14;100414.25;;;23.72;50.72
41218;BME280;26950;50.960;7.138;2023-07-20T04:49:40;100414.81;;;23.50;51.03
41218;BME280;26950;50.960;7.138;2023-07-20T04:52:07;100421.78;;;22.55;53.83
41218;BME280;26950;50.960;7.138;2023-07-20T04:54:34;100415.19;;;23.69;51.29
41218;BME280;26950;50.960;7.138;2023-07-20T04:57:02;100420.44;;;23.74;50.80
41218;BME280;26950;50.960;7.138;2023-07-20T04:59:28;100415.69;;;23.51;51.51
41218;BME280;26950;50.960;7.138;2023-07-20T05:01:55;100416.84;;;24.04;50.25
41218;BME280;26950;50.960;7.138;2023-07-20T05:04:21;100416.06;;;23.71;50.31
41218;BME280;26950;50.960;7.138;2023-07-20T05:06:48;100428.72;;;22.99;52.50
41218;BME280;26950;50.960;7.138;2023-07-20T05:09:14;100418.41;;;23.18;52.54
41218;BME280;26950;50.960;7.138;2023-07-20T05:11:41;100414.28;;;23.05;52.33
41218;BME280;26950;50.960;7.138;2023-07-20T05:14:08;100414.22;;;23.08;52.48
41218;BME280;26950;50.960;7.138;2023-07-20T05:16:35;100419.06;;;23.59;50.95
41218;BME280;26950;50.960;7.138;2023-07-20T05:19:01;100422.16;;;22.77;53.19
41218;BME280;26950;50.960;7.138;2023-07-20T05:21:28;100423.19;;;22.71;53.49
41218;BME280;26950;50.960;7.138;2023-07-20T05:23:55;100421.53;;;23.66;51.00
41218;BME280;26950;50.960;7.138;2023-07-20T05:26:21;100421.00;;;23.85;50.94
41218;BME280;26950;50.960;7.138;2023-07-20T05:28:48;100423.38;;;23.32;52.00
41218;BME280;26950;50.960;7.138;2023-07-20T05:31:15;100421.25;;;23.76;51.12
41218;BME280;26950;50.960;7.138;2023-07-20T05:33:42;100422.06;;;23.79;50.97
41218;BME280;26950;50.960;7.138;2023-07-20T05:36:09;100422.56;;;22.60;54.47
41218;BME280;26950;50.960;7.138;2023-07-20T05:38:35;100427.81;;;22.65;54.08
41218;BME280;26950;50.960;7.138;2023-07-20T05:41:02;100432.50;;;22.16;55.21
41218;BME280;26950;50.960;7.138;2023-07-20T05:43:29;100434.66;;;22.75;53.82
41218;BME280;26950;50.960;7.138;2023-07-20T05:45:56;100430.28;;;23.40;52.07
41218;BME280;26950;50.960;7.138;2023-07-20T05:48:24;100428.16;;;23.21;52.52
41218;BME280;26950;50.960;7.138;2023-07-20T05:50:51;100428.56;;;23.38;52.03
41218;BME280;26950;50.960;7.138;2023-07-20T05:53:17;100432.84;;;23.45;51.80
41218;BME280;26950;50.960;7.138;2023-07-20T05:55:44;100437.66;;;23.32;51.94
41218;BME280;26950;50.960;7.138;2023-07-20T05:58:10;100433.88;;;23.72;50.93
41218;BME280;26950;50.960;7.138;2023-07-20T06:00:37;100437.81;;;23.90;50.39
41218;BME280;26950;50.960;7.138;2023-07-20T06:03:03;100432.38;;;23.63;51.31
41218;BME280;26950;50.960;7.138;2023-07-20T06:05:31;100431.44;;;23.94;50.74
41218;BME280;26950;50.960;7.138;2023-07-20T06:07:57;100436.72;;;23.97;50.90
41218;BME280;26950;50.960;7.138;2023-07-20T06:10:25;100437.22;;;24.10;50.55
41218;BME280;26950;50.960;7.138;2023-07-20T06:12:52;100446.50;;;24.28;50.41
41218;BME280;26950;50.960;7.138;2023-07-20T06:15:26;100445.75;;;22.97;52.95
41218;BME280;26950;50.960;7.138;2023-07-20T06:17:53;100449.47;;;23.56;51.72
41218;BME280;26950;50.960;7.138;2023-07-20T06:20:21;100441.34;;;23.28;52.31
41218;BME280;26950;50.960;7.138;2023-07-20T06:22:49;100440.31;;;23.96;51.59
41218;BME280;26950;50.960;7.138;2023-07-20T06:25:16;100449.88;;;24.05;50.63
41218;BME280;26950;50.960;7.138;2023-07-20T06:27:42;100446.00;;;24.15;50.31
41218;BME280;26950;50.960;7.138;2023-07-20T06:30:09;100442.28;;;23.58;52.16
41218;BME280;26950;50.960;7.138;2023-07-20T06:32:37;100447.22;;;22.73;53.58
41218;BME280;26950;50.960;7.138;2023-07-20T06:35:04;100457.41;;;23.28;52.13
41218;BME280;26950;50.960;7.138;2023-07-20T06:37:31;100455.59;;;24.22;50.04
41218;BME280;26950;50.960;7.138;2023-07-20T06:39:59;100452.63;;;24.31;49.93
41218;BME280;26950;50.960;7.138;2023-07-20T06:42:25;100447.25;;;24.31;49.37
41218;BME280;26950;50.960;7.138;2023-07-20T06:44:52;100446.56;;;23.97;50.62
41218;BME280;26950;50.960;7.138;2023-07-20T06:47:18;100447.88;;;24.11;50.61
41218;BME280;26950;50.960;7.138;2023-07-20T06:49:45;100455.34;;;24.02;50.27
41218;BME280;26950;50.960;7.138;2023-07-20T06:52:11;100456.03;;;24.08;50.36
41218;BME280;26950;50.960;7.138;2023-07-20T06:54:38;100460.59;;;24.05;50.71
41218;BME280;26950;50.960;7.138;2023-07-20T06:57:06;100457.72;;;24.68;49.46
41218;BME280;26950;50.960;7.138;2023-07-20T06:59:33;100460.88;;;22.98;53.45
41218;BME280;26950;50.960;7.138;2023-07-20T07:01:59;100464.75;;;23.20;53.13
41218;BME280;26950;50.960;7.138;2023-07-20T07:04:26;100464.50;;;23.63;51.93
41218;BME280;26950;50.960;7.138;2023-07-20T07:06:52;100470.94;;;24.17;49.65
41218;BME280;26950;50.960;7.138;2023-07-20T07:09:19;100462.28;;;24.07;50.38
41218;BME280;26950;50.960;7.138;2023-07-20T07:11:46;100475.69;;;23.11;52.39
41218;BME280;26950;50.960;7.138;2023-07-20T07:14:13;100466.84;;;23.41;52.29
41218;BME280;26950;50.960;7.138;2023-07-20T07:16:40;100461.94;;;23.90;50.85
41218;BME280;26950;50.960;7.138;2023-07-20T07:19:07;100470.25;;;24.10;50.63
41218;BME280;26950;50.960;7.138;2023-07-20T07:21:33;100459.22;;;23.91;50.55
41218;BME280;26950;50.960;7.138;2023-07-20T07:24:00;100469.75;;;24.27;49.53
41218;BME280;26950;50.960;7.138;2023-07-20T07:26:26;100471.34;;;24.34;49.50
41218;BME280;26950;50.960;7.138;2023-07-20T07:28:53;100462.78;;;23.92;50.34
41218;BME280;26950;50.960;7.138;2023-07-20T07:31:20;100473.91;;;24.39;49.74
41218;BME280;26950;50.960;7.138;2023-07-20T07:33:48;100466.63;;;25.23;47.83
41218;BME280;26950;50.960;7.138;2023-07-20T07:36:15;100465.91;;;25.18;47.16
41218;BME280;26950;50.960;7.138;2023-07-20T07:38:41;100465.38;;;25.59;46.03
41218;BME280;26950;50.960;7.138;2023-07-20T07:41:08;100465.50;;;26.04;45.68
41218;BME280;26950;50.960;7.138;2023-07-20T07:43:34;100467.50;;;25.49;46.46
41218;BME280;26950;50.960;7.138;2023-07-20T07:46:01;100472.38;;;25.13;46.70
41218;BME280;26950;50.960;7.138;2023-07-20T07:48:30;100474.34;;;25.33;46.22
41218;BME280;26950;50.960;7.138;2023-07-20T07:50:56;100486.31;;;24.69;47.06
41218;BME280;26950;50.960;7.138;2023-07-20T07:53:23;100479.84;;;25.54;45.21
41218;BME280;26950;50.960;7.138;2023-07-20T07:55:51;100475.31;;;25.05;45.88
41218;BME280;26950;50.960;7.138;2023-07-20T07:58:18;100470.41;;;25.43;45.22
41218;BME280;26950;50.960;7.138;2023-07-20T08:00:44;100477.03;;;25.84;44.56
41218;BME280;26950;50.960;7.138;2023-07-20T08:03:13;100468.31;;;25.77;45.24
41218;BME280;26950;50.960;7.138;2023-07-20T08:05:41;100475.25;;;25.07;45.02
41218;BME280;26950;50.960;7.138;2023-07-20T08:08:07;100475.63;;;25.72;44.48
41218;BME280;26950;50.960;7.138;2023-07-20T08:10:34;100477.81;;;25.61;44.07
41218;BME280;26950;50.960;7.138;2023-07-20T08:13:01;100493.28;;;25.01;45.09
41218;BME280;26950;50.960;7.138;2023-07-20T08:15:27;100480.13;;;25.47;44.11
41218;BME280;26950;50.960;7.138;2023-07-20T08:17:54;100480.16;;;25.70;43.52
41218;BME280;26950;50.960;7.138;2023-07-20T08:20:20;100469.97;;;25.55;43.69
41218;BME280;26950;50.960;7.138;2023-07-20T08:22:53;100470.69;;;25.60;43.72
41218;BME280;26950;50.960;7.138;2023-07-20T08:25:20;100481.31;;;25.38;44.20
41218;BME280;26950;50.960;7.138;2023-07-20T08:27:46;100483.69;;;25.47;44.23
41218;BME280;26950;50.960;7.138;2023-07-20T08:30:13;100487.25;;;25.98;43.79
41218;BME280;26950;50.960;7.138;2023-07-20T08:32:40;100487.69;;;25.36;44.60
41218;BME280;26950;50.960;7.138;2023-07-20T08:35:07;100498.03;;;24.39;46.17
41218;BME280;26950;50.960;7.138;2023-07-20T08:37:33;100499.41;;;24.52;46.26
41218;BME280;26950;50.960;7.138;2023-07-20T08:40:01;100502.34;;;24.72;45.88
41218;BME280;26950;50.960;7.138;2023-07-20T08:42:31;100496.75;;;24.51;46.50
41218;BME280;26950;50.960;7.138;2023-07-20T08:44:58;100493.28;;;25.01;45.78
41218;BME280;26950;50.960;7.138;2023-07-20T08:47:26;100495.03;;;25.04;44.76
41218;BME280;26950;50.960;7.138;2023-07-20T08:49:54;100490.41;;;25.09;43.47
41218;BME280;26950;50.960;7.138;2023-07-20T08:52:21;100493.78;;;25.41;42.89
41218;BME280;26950;50.960;7.138;2023-07-20T08:54:48;100487.81;;;26.29;42.09
41218;BME280;26950;50.960;7.138;2023-07-20T08:57:17;100491.72;;;25.74;42.34
41218;BME280;26950;50.960;7.138;2023-07-20T08:59:44;100481.25;;;26.60;40.37
41218;BME280;26950;50.960;7.138;2023-07-20T09:02:14;100482.47;;;26.51;40.09
41218;BME280;26950;50.960;7.138;2023-07-20T09:04:42;100482.81;;;25.72;41.61
41218;BME280;26950;50.960;7.138;2023-07-20T09:07:11;100484.91;;;26.12;41.22
41218;BME280;26950;50.960;7.138;2023-07-20T09:09:39;100481.09;;;25.19;43.71
41218;BME280;26950;50.960;7.138;2023-07-20T09:12:13;100477.47;;;25.70;41.95
41218;BME280;26950;50.960;7.138;2023-07-20T09:14:42;100479.75;;;26.06;41.76
41218;BME280;26950;50.960;7.138;2023-07-20T09:17:12;100477.53;;;25.94;40.97
41218;BME280;26950;50.960;7.138;2023-07-20T09:19:45;100474.88;;;26.39;40.93
41218;BME280;26950;50.960;7.138;2023-07-20T09:22:12;100474.47;;;25.29;42.24
41218;BME280;26950;50.960;7.138;2023-07-20T09:24:38;100480.78;;;25.02;43.59
41218;BME280;26950;50.960;7.138;2023-07-20T09:27:06;100481.59;;;25.55;42.00
41218;BME280;26950;50.960;7.138;2023-07-20T09:29:33;100478.47;;;26.16;41.33
41218;BME280;26950;50.960;7.138;2023-07-20T09:32:02;100482.41;;;25.84;40.87
41218;BME280;26950;50.960;7.138;2023-07-20T09:34:29;100485.88;;;25.36;40.97
41218;BME280;26950;50.960;7.138;2023-07-20T09:36:57;100481.66;;;25.02;41.53
41218;BME280;26950;50.960;7.138;2023-07-20T09:39:23;100487.03;;;25.02;42.46
41218;BME280;26950;50.960;7.138;2023-07-20T09:41:51;100468.31;;;25.77;40.09
41218;BME280;26950;50.960;7.138;2023-07-20T09:44:18;100471.22;;;25.45;41.88
41218;BME280;26950;50.960;7.138;2023-07-20T09:46:46;100471.44;;;25.89;41.39
41218;BME280;26950;50.960;7.138;2023-07-20T09:49:14;100477.03;;;25.84;41.13
41218;BME280;26950;50.960;7.138;2023-07-20T09:51:41;100478.34;;;25.96;40.81
41218;BME280;26950;50.960;7.138;2023-07-20T09:54:07;100486.75;;;24.84;41.37
41218;BME280;26950;50.960;7.138;2023-07-20T09:56:34;100471.91;;;26.23;40.02
41218;BME280;26950;50.960;7.138;2023-07-20T09:59:01;100474.47;;;26.50;39.53
41218;BME280;26950;50.960;7.138;2023-07-20T10:01:28;100471.75;;;26.04;40.14
41218;BME280;26950;50.960;7.138;2023-07-20T10:03:58;100478.69;;;25.87;40.54
41218;BME280;26950;50.960;7.138;2023-07-20T10:06:29;100468.03;;;26.54;38.66
41218;BME280;26950;50.960;7.138;2023-07-20T10:09:00;100474.56;;;26.48;39.31
41218;BME280;26950;50.960;7.138;2023-07-20T10:11:29;100467.97;;;26.55;39.47
41218;BME280;26950;50.960;7.138;2023-07-20T10:13:58;100467.13;;;25.85;39.75
41218;BME280;26950;50.960;7.138;2023-07-20T10:16:28;100472.47;;;26.09;36.73
41218;BME280;26950;50.960;7.138;2023-07-20T10:19:03;100465.28;;;26.32;37.05
41218;BME280;26950;50.960;7.138;2023-07-20T10:21:32;100461.63;;;26.11;37.13
41218;BME280;26950;50.960;7.138;2023-07-20T10:24:02;100456.31;;;25.61;38.30
41218;BME280;26950;50.960;7.138;2023-07-20T10:26:29;100451.88;;;25.85;37.49
41218;BME280;26950;50.960;7.138;2023-07-20T10:28:58;100448.09;;;25.91;38.55
41218;BME280;26950;50.960;7.138;2023-07-20T10:31:26;100454.84;;;26.01;37.65
41218;BME280;26950;50.960;7.138;2023-07-20T10:33:54;100461.69;;;25.61;38.50
41218;BME280;26950;50.960;7.138;2023-07-20T10:36:24;100448.06;;;26.14;37.93
41218;BME280;26950;50.960;7.138;2023-07-20T10:38:54;100446.78;;;26.01;38.10
41218;BME280;26950;50.960;7.138;2023-07-20T10:41:27;100448.34;;;26.06;38.34
41218;BME280;26950;50.960;7.138;2023-07-20T10:43:58;100442.56;;;26.17;37.27
41218;BME280;26950;50.960;7.138;2023-07-20T10:46:36;100441.50;;;27.09;36.58
41218;BME280;26950;50.960;7.138;2023-07-20T10:49:08;100439.47;;;27.15;36.51
41218;BME280;26950;50.960;7.138;2023-07-20T10:51:39;100438.53;;;26.05;37.30
41218;BME280;26950;50.960;7.138;2023-07-20T10:54:09;100433.03;;;26.76;35.53
41218;BME280;26950;50.960;7.138;2023-07-20T10:56:56;100435.09;;;26.91;35.66
41218;BME280;26950;50.960;7.138;2023-07-20T10:59:37;100424.53;;;27.68;34.50
41218;BME280;26950;50.960;7.138;2023-07-20T11:02:06;100439.91;;;27.25;35.40
41218;BME280;26950;50.960;7.138;2023-07-20T11:04:40;100432.97;;;27.60;33.99
41218;BME280;26950;50.960;7.138;2023-07-20T11:07:07;100434.19;;;27.53;33.63
41218;BME280;26950;50.960;7.138;2023-07-20T11:09:36;100427.59;;;27.20;34.01
41218;BME280;26950;50.960;7.138;2023-07-20T11:12:10;100435.88;;;27.15;34.44
41218;BME280;26950;50.960;7.138;2023-07-20T11:14:40;100433.13;;;26.95;34.84
41218;BME280;26950;50.960;7.138;2023-07-20T11:17:11;100430.91;;;25.46;37.92
41218;BME280;26950;50.960;7.138;2023-07-20T11:19:39;100431.97;;;26.58;37.69
41218;BME280;26950;50.960;7.138;2023-07-20T11:22:06;100437.22;;;27.25;37.28
41218;BME280;26950;50.960;7.138;2023-07-20T11:24:38;100424.13;;;27.77;36.96
41218;BME280;26950;50.960;7.138;2023-07-20T11:27:05;100431.44;;;28.13;38.09
41218;BME280;26950;50.960;7.138;2023-07-20T11:29:32;100427.91;;;27.32;43.03
41218;BME280;26950;50.960;7.138;2023-07-20T11:31:58;100426.81;;;26.53;38.63
41218;BME280;26950;50.960;7.138;2023-07-20T11:34:25;100426.09;;;26.03;42.21
41218;BME280;26950;50.960;7.138;2023-07-20T11:36:52;100435.06;;;25.30;46.38
41218;BME280;26950;50.960;7.138;2023-07-20T11:39:21;100428.00;;;24.74;45.86
41218;BME280;26950;50.960;7.138;2023-07-20T11:41:52;100424.78;;;25.66;44.49
41218;BME280;26950;50.960;7.138;2023-07-20T11:44:19;100427.47;;;25.66;43.26
41218;BME280;26950;50.960;7.138;2023-07-20T11:46:59;100421.63;;;25.55;42.17
41218;BME280;26950;50.960;7.138;2023-07-20T11:49:26;100429.09;;;24.95;46.85
41218;BME280;26950;50.960;7.138;2023-07-20T11:51:53;100431.81;;;25.20;43.95
41218;BME280;26950;50.960;7.138;2023-07-20T11:54:19;100433.34;;;25.01;45.60
41218;BME280;26950;50.960;7.138;2023-07-20T11:56:46;100431.09;;;24.89;47.50
41218;BME280;26950;50.960;7.138;2023-07-20T11:59:14;100426.94;;;25.07;45.59
41218;BME280;26950;50.960;7.138;2023-07-20T12:01:40;100422.22;;;25.13;45.94
41218;BME280;26950;50.960;7.138;2023-07-20T12:04:07;100418.16;;;25.26;42.97
41218;BME280;26950;50.960;7.138;2023-07-20T12:06:33;100409.72;;;25.12;45.29
41218;BME280;26950;50.960;7.138;2023-07-20T12:09:00;100422.28;;;25.37;44.96
41218;BME280;26950;50.960;7.138;2023-07-20T12:11:31;100418.84;;;25.33;40.01
41218;BME280;26950;50.960;7.138;2023-07-20T12:13:57;100410.97;;;25.02;39.15
41218;BME280;26950;50.960;7.138;2023-07-20T12:16:28;100416.88;;;24.60;38.37
41218;BME280;26950;50.960;7.138;2023-07-20T12:18:59;100402.84;;;25.30;36.72
41218;BME280;26950;50.960;7.138;2023-07-20T12:21:26;100412.72;;;25.78;40.71
41218;BME280;26950;50.960;7.138;2023-07-20T12:23:52;100408.50;;;25.71;37.30
41218;BME280;26950;50.960;7.138;2023-07-20T12:26:19;100413.00;;;25.45;38.33
41218;BME280;26950;50.960;7.138;2023-07-20T12:28:47;100414.09;;;25.65;35.82
41218;BME280;26950;50.960;7.138;2023-07-20T12:31:14;100411.28;;;24.93;39.22
41218;BME280;26950;50.960;7.138;2023-07-20T12:33:42;100413.25;;;25.14;40.07
41218;BME280;26950;50.960;7.138;2023-07-20T12:36:09;100422.19;;;25.40;42.70
41218;BME280;26950;50.960;7.138;2023-07-20T12:38:36;100417.53;;;24.11;46.84
41218;BME280;26950;50.960;7.138;2023-07-20T12:41:03;100416.09;;;23.99;47.42
41218;BME280;26950;50.960;7.138;2023-07-20T12:43:29;100418.00;;;24.23;46.64
41218;BME280;26950;50.960;7.138;2023-07-20T12:45:57;100412.72;;;24.50;45.51
41218;BME280;26950;50.960;7.138;2023-07-20T12:48:24;100412.69;;;23.64;49.66
41218;BME280;26950;50.960;7.138;2023-07-20T12:50:51;100419.88;;;24.21;47.08
41218;BME280;26950;50.960;7.138;2023-07-20T12:53:18;100416.66;;;24.40;45.59
41218;BME280;26950;50.960;7.138;2023-07-20T12:55:44;100417.56;;;24.09;46.26